BJACK01 KDCA-DC08
Flight info
| Callsign | BJACK01 |
|---|---|
| Flight time | 0h 3m |
| Altitude | VFR/015 |
| Route | VFR SOUTH |
| Aircraft | AS65/L-V/N |
Departure
| Time | 2026-05-07 01:07 |
|---|---|
| Airport | Ronald Reagan Washington National Airport (KDCA) |
Arrival
| Time | 2026-05-07 01:10 |
|---|---|
| Airport | WHC Heliport (DC08) |
| Time | Latitude | Longitude | Altitude | Speed | Heading |
|---|---|---|---|---|---|
| 2026-05-07 01:07 | 38.94269 | -76.93603 | 1320 ft | 123 kts | 240° |
| 2026-05-07 01:07 | 38.94073 | -76.94605 | 1328 ft | 114 kts | 281° |
| 2026-05-07 01:07 | 38.94300 | -76.95560 | 1330 ft | 110 kts | 295° |
| 2026-05-07 01:07 | 38.94471 | -76.96518 | 1326 ft | 112 kts | 283° |
| 2026-05-07 01:08 | 38.94455 | -76.97528 | 1325 ft | 118 kts | 272° |
| 2026-05-07 01:08 | 38.94409 | -76.98572 | 1328 ft | 116 kts | 279° |
| 2026-05-07 01:08 | 38.94584 | -76.99542 | 1325 ft | 111 kts | 294° |
| 2026-05-07 01:08 | 38.94702 | -77.00512 | 1145 ft | 115 kts | 264° |
| 2026-05-07 01:09 | 38.94228 | -77.01333 | 1052 ft | 118 kts | 218° |
| 2026-05-07 01:09 | 38.93454 | -77.01379 | 1025 ft | 116 kts | 155° |
| 2026-05-07 01:09 | 38.93017 | -77.00585 | 1015 ft | 109 kts | 97° |
| 2026-05-07 01:09 | 38.93253 | -76.99778 | 1075 ft | 92 kts | 36° |
| 2026-05-07 01:10 | 38.93788 | -76.99708 | 1059 ft | 73 kts | 326° |
| 2026-05-07 01:10 | 38.93926 | -77.00228 | 1019 ft | 59 kts | 266° |
| 2026-05-07 01:10 | 38.93855 | -77.00670 | 880 ft | 45 kts | 268° |
| 2026-05-07 01:10 | 38.93777 | -77.01049 | 797 ft | 43 kts | 255° |
| 2026-05-07 01:11 | 38.93614 | -77.01349 | 733 ft | 38 kts | 230° |
| 2026-05-07 01:11 | 38.93435 | -77.01492 | 620 ft | 23 kts | 221° |
| 2026-05-07 01:11 | 38.93296 | -77.01572 | 530 ft | 21 kts | 197° |
| 2026-05-07 01:11 | 38.93167 | -77.01604 | 469 ft | 17 kts | 190° |
| 2026-05-07 01:12 | 38.93074 | -77.01599 | 366 ft | 8 kts | 190° |
| 2026-05-07 01:12 | 38.93046 | -77.01640 | 336 ft | 5 kts | 183° |
| 2026-05-07 01:12 | 38.93013 | -77.01651 | 308 ft | 8 kts | 183° |
| 2026-05-07 01:12 | 38.92990 | -77.01670 | 301 ft | 3 kts | 170° |
| 2026-05-07 01:13 | 38.92957 | -77.01672 | 265 ft | 5 kts | 170° |
| 2026-05-07 01:13 | 38.92938 | -77.01667 | 244 ft | 1 kts | 169° |
| 2026-05-07 01:13 | 38.92927 | -77.01670 | 232 ft | 1 kts | 170° |
| 2026-05-07 01:13 | 38.92929 | -77.01673 | 239 ft | 3 kts | 170° |
| 2026-05-07 01:14 | 38.92932 | -77.01669 | 315 ft | 2 kts | 169° |
| 2026-05-07 01:14 | 38.92926 | -77.01687 | 297 ft | 3 kts | 169° |
| 2026-05-07 01:14 | 38.92918 | -77.01672 | 265 ft | 2 kts | 170° |
| 2026-05-07 01:14 | 38.92913 | -77.01669 | 229 ft | 4 kts | 170° |
| 2026-05-07 01:15 | 38.92908 | -77.01666 | 219 ft | 3 kts | 170° |
| 2026-05-07 01:15 | 38.92896 | -77.01667 | 199 ft | 6 kts | 172° |
| 2026-05-07 01:15 | 38.92878 | -77.01661 | 192 ft | 0 kts | 129° |
| 2026-05-07 01:15 | 38.92882 | -77.01659 | 193 ft | 0 kts | 54° |
| 2026-05-07 01:16 | 38.92883 | -77.01664 | 193 ft | 0 kts | 136° |
| 2026-05-07 01:16 | 38.92885 | -77.01667 | 198 ft | 0 kts | 131° |
| 2026-05-07 01:20 | 38.92884 | -77.01667 | 193 ft | 2 kts | 177° |
| 2026-05-07 01:21 | 38.92888 | -77.01659 | 252 ft | 2 kts | 176° |
| 2026-05-07 01:21 | 38.92879 | -77.01658 | 328 ft | 3 kts | 176° |
| 2026-05-07 01:21 | 38.92848 | -77.01646 | 409 ft | 6 kts | 129° |
| 2026-05-07 01:21 | 38.92832 | -77.01586 | 399 ft | 9 kts | 125° |
| 2026-05-07 01:22 | 38.92825 | -77.01535 | 369 ft | 4 kts | 125° |
| 2026-05-07 01:22 | 38.92809 | -77.01519 | 353 ft | 3 kts | 124° |
| 2026-05-07 01:22 | 38.92797 | -77.01492 | 335 ft | 5 kts | 125° |
| 2026-05-07 01:22 | 38.92785 | -77.01465 | 313 ft | 2 kts | 124° |
| 2026-05-07 01:23 | 38.92791 | -77.01452 | 311 ft | 5 kts | 144° |
| 2026-05-07 01:23 | 38.92804 | -77.01450 | 316 ft | 3 kts | 162° |
| 2026-05-07 01:23 | 38.92782 | -77.01449 | 301 ft | 1 kts | 162° |
| 2026-05-07 01:23 | 38.92767 | -77.01447 | 294 ft | 3 kts | 165° |
| 2026-05-07 01:24 | 38.92764 | -77.01446 | 285 ft | 0 kts | 166° |
| 2026-05-07 01:25 | 38.92765 | -77.01446 | 289 ft | 0 kts | 166° |
| 2026-05-07 01:25 | 38.92770 | -77.01437 | 401 ft | 1 kts | 165° |
| 2026-05-07 01:25 | 38.92673 | -77.01399 | 542 ft | 29 kts | 166° |
| 2026-05-07 01:26 | 38.92397 | -77.01256 | 770 ft | 57 kts | 162° |
| 2026-05-07 01:26 | 38.92065 | -77.00803 | 908 ft | 82 kts | 122° |
| 2026-05-07 01:26 | 38.91780 | -77.00075 | 1010 ft | 100 kts | 112° |
| 2026-05-07 01:26 | 38.91540 | -76.99177 | 1038 ft | 112 kts | 106° |
| 2026-05-07 01:27 | 38.91318 | -76.98179 | 1029 ft | 122 kts | 105° |
| 2026-05-07 01:27 | 38.91162 | -76.97053 | 1023 ft | 132 kts | 94° |
| 2026-05-07 01:27 | 38.91131 | -76.95846 | 1047 ft | 135 kts | 94° |
| 2026-05-07 01:27 | 38.90974 | -76.94697 | 1030 ft | 130 kts | 104° |
| 2026-05-07 01:28 | 38.90743 | -76.93573 | 1034 ft | 134 kts | 103° |
| 2026-05-07 01:28 | 38.90367 | -76.92481 | 1041 ft | 136 kts | 127° |
| 2026-05-07 01:28 | 38.89682 | -76.91662 | 1040 ft | 132 kts | 148° |
| 2026-05-07 01:28 | 38.88872 | -76.91180 | 1033 ft | 130 kts | 169° |
| 2026-05-07 01:29 | 38.87959 | -76.90985 | 1043 ft | 133 kts | 181° |
| 2026-05-07 01:29 | 38.87034 | -76.90937 | 1027 ft | 132 kts | 186° |
| 2026-05-07 01:29 | 38.86131 | -76.90967 | 1023 ft | 131 kts | 189° |
| 2026-05-07 01:29 | 38.85227 | -76.91034 | 1027 ft | 128 kts | 188° |
| 2026-05-07 01:30 | 38.84336 | -76.91191 | 1027 ft | 130 kts | 200° |
| 2026-05-07 01:30 | 38.83461 | -76.91433 | 1027 ft | 125 kts | 198° |
| 2026-05-07 01:30 | 38.82615 | -76.91616 | 1020 ft | 124 kts | 194° |
| 2026-05-07 01:30 | 38.81753 | -76.91746 | 1028 ft | 124 kts | 190° |
| 2026-05-07 01:31 | 38.80917 | -76.91909 | 1032 ft | 122 kts | 198° |
| 2026-05-07 01:31 | 38.80066 | -76.92157 | 1034 ft | 123 kts | 202° |
| 2026-05-07 01:31 | 38.79247 | -76.92473 | 1032 ft | 123 kts | 205° |
| 2026-05-07 01:31 | 38.78438 | -76.92789 | 1024 ft | 124 kts | 202° |
| 2026-05-07 01:32 | 38.77624 | -76.93084 | 1031 ft | 121 kts | 204° |
| 2026-05-07 01:32 | 38.76822 | -76.93415 | 1028 ft | 121 kts | 204° |
| 2026-05-07 01:32 | 38.76015 | -76.93759 | 1026 ft | 123 kts | 206° |
| 2026-05-07 01:32 | 38.75225 | -76.94159 | 1027 ft | 121 kts | 210° |
| 2026-05-07 01:33 | 38.74477 | -76.94625 | 1028 ft | 121 kts | 213° |
| 2026-05-07 01:33 | 38.73735 | -76.95141 | 1021 ft | 122 kts | 211° |
| 2026-05-07 01:33 | 38.72928 | -76.95495 | 1025 ft | 124 kts | 202° |
| 2026-05-07 01:33 | 38.72110 | -76.95847 | 1027 ft | 124 kts | 206° |
| 2026-05-07 01:34 | 38.71306 | -76.96225 | 1024 ft | 122 kts | 206° |
| 2026-05-07 01:34 | 38.70505 | -76.96591 | 1024 ft | 121 kts | 207° |
| 2026-05-07 01:34 | 38.69713 | -76.96927 | 1024 ft | 120 kts | 209° |
| 2026-05-07 01:34 | 38.69035 | -76.97497 | 1007 ft | 116 kts | 233° |
| 2026-05-07 01:35 | 38.68535 | -76.98291 | 1008 ft | 116 kts | 236° |
| 2026-05-07 01:35 | 38.67950 | -76.99025 | 1014 ft | 118 kts | 226° |
| 2026-05-07 01:35 | 38.67304 | -76.99671 | 1015 ft | 117 kts | 224° |
| 2026-05-07 01:35 | 38.66653 | -77.00311 | 1013 ft | 118 kts | 223° |
| 2026-05-07 01:36 | 38.66015 | -77.00998 | 1014 ft | 121 kts | 232° |
| 2026-05-07 01:36 | 38.65482 | -77.01825 | 1017 ft | 122 kts | 235° |
| 2026-05-07 01:36 | 38.64928 | -77.02614 | 1021 ft | 121 kts | 232° |
| 2026-05-07 01:36 | 38.64337 | -77.03373 | 1021 ft | 120 kts | 231° |
| 2026-05-07 01:37 | 38.63724 | -77.04109 | 1020 ft | 122 kts | 228° |
| 2026-05-07 01:37 | 38.63083 | -77.04822 | 1023 ft | 121 kts | 227° |
| 2026-05-07 01:37 | 38.62460 | -77.05486 | 1000 ft | 109 kts | 227° |
| 2026-05-07 01:37 | 38.61978 | -77.06167 | 869 ft | 98 kts | 232° |
| 2026-05-07 01:38 | 38.61655 | -77.06835 | 777 ft | 77 kts | 236° |
| 2026-05-07 01:38 | 38.61498 | -77.07381 | 614 ft | 55 kts | 241° |